LTCF

Kars Airport

Kars, Turkey
TAF LTCF 151040Z 1512/1521 09012KT 9999 BKN035 BECMG 1516/1518 CAVOK
Issued Valid From Valid To
Aug-15 @ 10:40 UTC
(2 hours ago)
Aug-15 @ 12:00 UTC
(41 minutes ago)
Aug-15 @ 21:00 UTC
(in 8 hours)
Aug-15 @ 12:00 to Aug-15 @ 16:00
TAF LTCF 151040Z 1512/1521 09012KT 9999 BKN035
Wind Visibility Clouds
90° at 12 knots 10,000+ meters
  • Broken at 3,500' AGL
Becoming Aug-15 @ 16:00 to Aug-15 @ 21:00
BECMG 1516/1518 CAVOK
Wind Visibility Clouds Conditions
90° at 12 knots 10,000+ meters
  • No significant clouds
TAF LTCF 151040Z 1512/1521 09012KT 9999 BKN035 BECMG 1516/1518 CAVOK
Issued Aug-15 @ 10:40 UTC
(2 hours ago)
Valid From Aug-15 @ 12:00 UTC
(41 minutes ago)
Valid To Aug-15 @ 21:00 UTC
(in 8 hours)
Aug-15 @ 12:00 - Aug-15 @ 16:00
Wind Visibility
90° at 12 knots 10,000+ meters
Clouds
  • Broken at 3,500' AGL
Becoming Aug-15 @ 16:00 - Aug-15 @ 21:00
Wind Visibility
90° at 12 knots 10,000+ meters
Clouds
  • No significant clouds
Conditions